sensor_id;sensor_type;location;lat;lon;timestamp;P1;durP1;ratioP1;P2;durP2;ratioP2
22632;SDS011;11483;55.828;37.488;2023-05-23T00:00:44;27.50;;;11.40;;
22632;SDS011;11483;55.828;37.488;2023-05-23T00:03:09;32.28;;;11.52;;
22632;SDS011;11483;55.828;37.488;2023-05-23T00:05:35;32.17;;;10.65;;
22632;SDS011;11483;55.828;37.488;2023-05-23T00:08:01;19.55;;;10.45;;
22632;SDS011;11483;55.828;37.488;2023-05-23T00:10:28;20.58;;;9.80;;
22632;SDS011;11483;55.828;37.488;2023-05-23T00:12:53;19.98;;;9.93;;
22632;SDS011;11483;55.828;37.488;2023-05-23T00:15:22;28.48;;;10.80;;
22632;SDS011;11483;55.828;37.488;2023-05-23T00:17:48;19.35;;;9.98;;
22632;SDS011;11483;55.828;37.488;2023-05-23T00:20:15;29.58;;;10.88;;
22632;SDS011;11483;55.828;37.488;2023-05-23T00:22:41;18.48;;;9.80;;
22632;SDS011;11483;55.828;37.488;2023-05-23T00:25:10;20.80;;;11.45;;
22632;SDS011;11483;55.828;37.488;2023-05-23T00:27:36;19.27;;;10.50;;
22632;SDS011;11483;55.828;37.488;2023-05-23T00:30:02;21.23;;;10.65;;
22632;SDS011;11483;55.828;37.488;2023-05-23T00:32:30;24.63;;;9.48;;
22632;SDS011;11483;55.828;37.488;2023-05-23T00:34:55;17.90;;;10.13;;
22632;SDS011;11483;55.828;37.488;2023-05-23T00:37:21;22.80;;;9.57;;
22632;SDS011;11483;55.828;37.488;2023-05-23T00:39:47;27.10;;;10.45;;
22632;SDS011;11483;55.828;37.488;2023-05-23T00:42:13;34.33;;;11.43;;
22632;SDS011;11483;55.828;37.488;2023-05-23T00:44:39;20.73;;;10.13;;
22632;SDS011;11483;55.828;37.488;2023-05-23T00:47:05;23.98;;;10.95;;
22632;SDS011;11483;55.828;37.488;2023-05-23T00:49:32;25.45;;;13.32;;
22632;SDS011;11483;55.828;37.488;2023-05-23T00:51:58;33.10;;;13.20;;
22632;SDS011;11483;55.828;37.488;2023-05-23T00:54:28;24.77;;;12.85;;
22632;SDS011;11483;55.828;37.488;2023-05-23T00:56:58;38.25;;;13.95;;
22632;SDS011;11483;55.828;37.488;2023-05-23T00:59:24;30.45;;;13.30;;
22632;SDS011;11483;55.828;37.488;2023-05-23T01:01:51;28.58;;;14.32;;
22632;SDS011;11483;55.828;37.488;2023-05-23T01:04:18;23.70;;;15.13;;
22632;SDS011;11483;55.828;37.488;2023-05-23T01:06:45;21.80;;;12.18;;
22632;SDS011;11483;55.828;37.488;2023-05-23T01:09:16;25.30;;;13.25;;
22632;SDS011;11483;55.828;37.488;2023-05-23T01:11:44;21.80;;;11.38;;
22632;SDS011;11483;55.828;37.488;2023-05-23T01:28:27;31.50;;;11.15;;
22632;SDS011;11483;55.828;37.488;2023-05-23T01:30:59;27.90;;;11.57;;
22632;SDS011;11483;55.828;37.488;2023-05-23T01:33:28;24.52;;;12.35;;
22632;SDS011;11483;55.828;37.488;2023-05-23T01:35:56;29.55;;;12.30;;
22632;SDS011;11483;55.828;37.488;2023-05-23T01:38:24;25.52;;;12.48;;
22632;SDS011;11483;55.828;37.488;2023-05-23T01:40:52;18.15;;;10.25;;
22632;SDS011;11483;55.828;37.488;2023-05-23T01:43:18;19.55;;;10.40;;
22632;SDS011;11483;55.828;37.488;2023-05-23T01:45:45;17.88;;;10.52;;
22632;SDS011;11483;55.828;37.488;2023-05-23T01:48:12;18.05;;;10.77;;
22632;SDS011;11483;55.828;37.488;2023-05-23T01:50:40;23.85;;;11.15;;
22632;SDS011;11483;55.828;37.488;2023-05-23T01:53:11;20.42;;;10.65;;
22632;SDS011;11483;55.828;37.488;2023-05-23T01:55:38;22.50;;;11.48;;
22632;SDS011;11483;55.828;37.488;2023-05-23T01:58:06;30.50;;;11.05;;
22632;SDS011;11483;55.828;37.488;2023-05-23T02:00:32;24.05;;;11.48;;
22632;SDS011;11483;55.828;37.488;2023-05-23T02:02:58;24.52;;;11.45;;
22632;SDS011;11483;55.828;37.488;2023-05-23T02:05:24;25.27;;;10.93;;
22632;SDS011;11483;55.828;37.488;2023-05-23T02:07:51;40.88;;;11.15;;
22632;SDS011;11483;55.828;37.488;2023-05-23T02:10:17;23.90;;;10.35;;
22632;SDS011;11483;55.828;37.488;2023-05-23T02:12:43;23.30;;;11.23;;
22632;SDS011;11483;55.828;37.488;2023-05-23T02:15:09;20.17;;;10.80;;
22632;SDS011;11483;55.828;37.488;2023-05-23T02:17:35;22.75;;;10.32;;
22632;SDS011;11483;55.828;37.488;2023-05-23T02:20:03;28.30;;;10.40;;
22632;SDS011;11483;55.828;37.488;2023-05-23T02:22:30;26.13;;;10.82;;
22632;SDS011;11483;55.828;37.488;2023-05-23T02:24:56;18.02;;;10.20;;
22632;SDS011;11483;55.828;37.488;2023-05-23T02:27:22;22.55;;;10.10;;
22632;SDS011;11483;55.828;37.488;2023-05-23T02:29:48;28.55;;;10.73;;
22632;SDS011;11483;55.828;37.488;2023-05-23T02:32:13;20.75;;;9.35;;
22632;SDS011;11483;55.828;37.488;2023-05-23T02:34:39;25.05;;;10.85;;
22632;SDS011;11483;55.828;37.488;2023-05-23T02:37:05;17.27;;;10.15;;
22632;SDS011;11483;55.828;37.488;2023-05-23T02:39:33;18.15;;;9.68;;
22632;SDS011;11483;55.828;37.488;2023-05-23T02:42:01;30.30;;;10.50;;
22632;SDS011;11483;55.828;37.488;2023-05-23T02:44:26;21.98;;;9.73;;
22632;SDS011;11483;55.828;37.488;2023-05-23T02:46:52;32.40;;;9.65;;
22632;SDS011;11483;55.828;37.488;2023-05-23T02:49:18;23.58;;;10.27;;
22632;SDS011;11483;55.828;37.488;2023-05-23T02:51:44;23.35;;;9.23;;
22632;SDS011;11483;55.828;37.488;2023-05-23T02:54:10;15.82;;;8.80;;
22632;SDS011;11483;55.828;37.488;2023-05-23T02:56:35;26.42;;;10.32;;
22632;SDS011;11483;55.828;37.488;2023-05-23T02:59:01;25.10;;;10.35;;
22632;SDS011;11483;55.828;37.488;2023-05-23T03:01:27;26.90;;;10.38;;
22632;SDS011;11483;55.828;37.488;2023-05-23T03:03:53;24.20;;;9.15;;
22632;SDS011;11483;55.828;37.488;2023-05-23T03:06:19;21.33;;;9.82;;
22632;SDS011;11483;55.828;37.488;2023-05-23T03:08:46;20.15;;;9.82;;
22632;SDS011;11483;55.828;37.488;2023-05-23T03:11:12;27.20;;;10.18;;
22632;SDS011;11483;55.828;37.488;2023-05-23T03:13:38;32.40;;;10.40;;
22632;SDS011;11483;55.828;37.488;2023-05-23T03:16:04;34.45;;;10.88;;
22632;SDS011;11483;55.828;37.488;2023-05-23T03:18:30;25.05;;;9.65;;
22632;SDS011;11483;55.828;37.488;2023-05-23T03:20:56;27.25;;;10.88;;
22632;SDS011;11483;55.828;37.488;2023-05-23T03:23:21;23.67;;;10.25;;
22632;SDS011;11483;55.828;37.488;2023-05-23T03:25:47;22.85;;;10.13;;
22632;SDS011;11483;55.828;37.488;2023-05-23T03:28:13;20.17;;;9.70;;
22632;SDS011;11483;55.828;37.488;2023-05-23T03:30:39;22.48;;;10.02;;
22632;SDS011;11483;55.828;37.488;2023-05-23T03:33:05;21.83;;;9.65;;
22632;SDS011;11483;55.828;37.488;2023-05-23T03:35:31;19.65;;;9.30;;
22632;SDS011;11483;55.828;37.488;2023-05-23T03:37:57;23.75;;;8.98;;
22632;SDS011;11483;55.828;37.488;2023-05-23T03:40:23;19.80;;;9.45;;
22632;SDS011;11483;55.828;37.488;2023-05-23T03:43:00;24.50;;;10.00;;
22632;SDS011;11483;55.828;37.488;2023-05-23T03:45:30;19.02;;;9.00;;
22632;SDS011;11483;55.828;37.488;2023-05-23T03:47:56;20.73;;;8.70;;
22632;SDS011;11483;55.828;37.488;2023-05-23T03:50:22;25.05;;;8.40;;
22632;SDS011;11483;55.828;37.488;2023-05-23T03:52:48;12.52;;;7.07;;
22632;SDS011;11483;55.828;37.488;2023-05-23T03:55:14;22.98;;;8.93;;
22632;SDS011;11483;55.828;37.488;2023-05-23T03:57:39;18.17;;;8.50;;
22632;SDS011;11483;55.828;37.488;2023-05-23T04:00:05;19.10;;;8.30;;
22632;SDS011;11483;55.828;37.488;2023-05-23T04:02:36;15.63;;;9.35;;
22632;SDS011;11483;55.828;37.488;2023-05-23T04:05:04;23.10;;;9.32;;
22632;SDS011;11483;55.828;37.488;2023-05-23T04:07:31;16.67;;;8.60;;
22632;SDS011;11483;55.828;37.488;2023-05-23T04:10:00;20.00;;;9.38;;
22632;SDS011;11483;55.828;37.488;2023-05-23T04:12:27;24.13;;;9.65;;
22632;SDS011;11483;55.828;37.488;2023-05-23T04:14:54;25.42;;;9.68;;
22632;SDS011;11483;55.828;37.488;2023-05-23T04:17:22;22.20;;;8.55;;
22632;SDS011;11483;55.828;37.488;2023-05-23T04:19:48;23.27;;;9.82;;
22632;SDS011;11483;55.828;37.488;2023-05-23T04:22:15;32.75;;;9.57;;
22632;SDS011;11483;55.828;37.488;2023-05-23T04:24:41;29.30;;;9.77;;
22632;SDS011;11483;55.828;37.488;2023-05-23T04:27:07;24.77;;;9.43;;
22632;SDS011;11483;55.828;37.488;2023-05-23T04:29:33;27.27;;;10.20;;
22632;SDS011;11483;55.828;37.488;2023-05-23T04:32:00;30.60;;;10.27;;
22632;SDS011;11483;55.828;37.488;2023-05-23T04:34:26;25.02;;;9.88;;
22632;SDS011;11483;55.828;37.488;2023-05-23T04:36:53;24.67;;;9.90;;
22632;SDS011;11483;55.828;37.488;2023-05-23T04:39:19;47.53;;;10.55;;
22632;SDS011;11483;55.828;37.488;2023-05-23T04:41:44;26.83;;;10.90;;
22632;SDS011;11483;55.828;37.488;2023-05-23T04:44:11;28.00;;;10.30;;
22632;SDS011;11483;55.828;37.488;2023-05-23T04:46:38;20.83;;;9.70;;
22632;SDS011;11483;55.828;37.488;2023-05-23T04:49:07;28.92;;;10.80;;
22632;SDS011;11483;55.828;37.488;2023-05-23T04:51:34;28.63;;;9.73;;
22632;SDS011;11483;55.828;37.488;2023-05-23T04:54:00;24.00;;;10.40;;
22632;SDS011;11483;55.828;37.488;2023-05-23T04:56:26;31.95;;;10.95;;
22632;SDS011;11483;55.828;37.488;2023-05-23T04:58:53;28.13;;;10.60;;
22632;SDS011;11483;55.828;37.488;2023-05-23T05:01:19;25.42;;;10.68;;
22632;SDS011;11483;55.828;37.488;2023-05-23T05:03:44;23.35;;;10.88;;
22632;SDS011;11483;55.828;37.488;2023-05-23T05:06:12;31.25;;;11.00;;
22632;SDS011;11483;55.828;37.488;2023-05-23T05:08:38;28.30;;;11.05;;
22632;SDS011;11483;55.828;37.488;2023-05-23T05:11:04;43.65;;;11.00;;
22632;SDS011;11483;55.828;37.488;2023-05-23T05:13:30;34.83;;;10.50;;
22632;SDS011;11483;55.828;37.488;2023-05-23T05:15:56;32.92;;;10.27;;
22632;SDS011;11483;55.828;37.488;2023-05-23T05:18:23;30.02;;;11.30;;
22632;SDS011;11483;55.828;37.488;2023-05-23T05:20:51;26.58;;;10.57;;
22632;SDS011;11483;55.828;37.488;2023-05-23T05:23:16;29.23;;;10.40;;
22632;SDS011;11483;55.828;37.488;2023-05-23T05:25:42;31.25;;;10.48;;
22632;SDS011;11483;55.828;37.488;2023-05-23T05:28:08;25.50;;;10.05;;
22632;SDS011;11483;55.828;37.488;2023-05-23T05:30:34;26.92;;;10.27;;
22632;SDS011;11483;55.828;37.488;2023-05-23T05:33:03;20.95;;;9.82;;
22632;SDS011;11483;55.828;37.488;2023-05-23T05:35:36;25.60;;;8.65;;
22632;SDS011;11483;55.828;37.488;2023-05-23T05:38:02;28.05;;;8.35;;
22632;SDS011;11483;55.828;37.488;2023-05-23T05:40:29;20.75;;;7.88;;
22632;SDS011;11483;55.828;37.488;2023-05-23T05:42:56;17.55;;;7.15;;
22632;SDS011;11483;55.828;37.488;2023-05-23T05:45:21;16.83;;;8.32;;
22632;SDS011;11483;55.828;37.488;2023-05-23T05:47:47;31.33;;;7.57;;
22632;SDS011;11483;55.828;37.488;2023-05-23T05:50:13;21.60;;;6.90;;
22632;SDS011;11483;55.828;37.488;2023-05-23T05:52:39;12.85;;;6.03;;
22632;SDS011;11483;55.828;37.488;2023-05-23T05:55:07;22.73;;;6.82;;
22632;SDS011;11483;55.828;37.488;2023-05-23T05:57:37;18.90;;;6.28;;
22632;SDS011;11483;55.828;37.488;2023-05-23T06:00:05;14.75;;;6.13;;
22632;SDS011;11483;55.828;37.488;2023-05-23T06:02:43;14.55;;;6.43;;
22632;SDS011;11483;55.828;37.488;2023-05-23T06:05:13;19.70;;;6.75;;
22632;SDS011;11483;55.828;37.488;2023-05-23T06:07:41;19.45;;;7.30;;
22632;SDS011;11483;55.828;37.488;2023-05-23T06:10:07;28.98;;;7.53;;
22632;SDS011;11483;55.828;37.488;2023-05-23T06:12:36;18.52;;;6.28;;
22632;SDS011;11483;55.828;37.488;2023-05-23T06:15:03;31.35;;;6.55;;
22632;SDS011;11483;55.828;37.488;2023-05-23T06:17:30;18.80;;;6.70;;
22632;SDS011;11483;55.828;37.488;2023-05-23T06:19:56;11.77;;;5.65;;
22632;SDS011;11483;55.828;37.488;2023-05-23T06:22:22;13.30;;;6.85;;
22632;SDS011;11483;55.828;37.488;2023-05-23T06:24:48;15.43;;;6.00;;
22632;SDS011;11483;55.828;37.488;2023-05-23T06:27:13;24.90;;;6.50;;
22632;SDS011;11483;55.828;37.488;2023-05-23T06:29:39;21.83;;;5.95;;
22632;SDS011;11483;55.828;37.488;2023-05-23T06:32:05;21.77;;;6.25;;
22632;SDS011;11483;55.828;37.488;2023-05-23T06:34:31;22.05;;;6.65;;
22632;SDS011;11483;55.828;37.488;2023-05-23T06:36:57;23.27;;;6.97;;
22632;SDS011;11483;55.828;37.488;2023-05-23T06:39:22;25.92;;;6.57;;
22632;SDS011;11483;55.828;37.488;2023-05-23T06:41:48;20.25;;;7.60;;
22632;SDS011;11483;55.828;37.488;2023-05-23T06:44:14;19.88;;;6.00;;
22632;SDS011;11483;55.828;37.488;2023-05-23T06:46:46;10.93;;;6.10;;
22632;SDS011;11483;55.828;37.488;2023-05-23T06:49:12;16.15;;;6.25;;
22632;SDS011;11483;55.828;37.488;2023-05-23T06:51:39;14.52;;;6.00;;
22632;SDS011;11483;55.828;37.488;2023-05-23T06:54:05;14.93;;;6.40;;
22632;SDS011;11483;55.828;37.488;2023-05-23T06:56:31;17.20;;;5.68;;
22632;SDS011;11483;55.828;37.488;2023-05-23T06:58:56;23.45;;;6.55;;
22632;SDS011;11483;55.828;37.488;2023-05-23T07:01:22;12.73;;;5.10;;
22632;SDS011;11483;55.828;37.488;2023-05-23T07:03:48;12.57;;;5.38;;
22632;SDS011;11483;55.828;37.488;2023-05-23T07:06:14;11.68;;;5.22;;
22632;SDS011;11483;55.828;37.488;2023-05-23T07:08:40;11.02;;;4.82;;
22632;SDS011;11483;55.828;37.488;2023-05-23T07:11:06;17.90;;;4.15;;
22632;SDS011;11483;55.828;37.488;2023-05-23T07:13:32;15.35;;;5.10;;
22632;SDS011;11483;55.828;37.488;2023-05-23T07:15:57;19.73;;;4.90;;
22632;SDS011;11483;55.828;37.488;2023-05-23T07:18:23;9.05;;;4.80;;
22632;SDS011;11483;55.828;37.488;2023-05-23T07:54:53;25.25;;;4.47;;
22632;SDS011;11483;55.828;37.488;2023-05-23T07:57:19;11.13;;;4.00;;
22632;SDS011;11483;55.828;37.488;2023-05-23T07:59:45;14.95;;;3.80;;
22632;SDS011;11483;55.828;37.488;2023-05-23T08:02:11;12.43;;;4.13;;
22632;SDS011;11483;55.828;37.488;2023-05-23T08:04:37;9.88;;;3.85;;
22632;SDS011;11483;55.828;37.488;2023-05-23T08:07:04;7.15;;;3.45;;
22632;SDS011;11483;55.828;37.488;2023-05-23T08:09:30;7.35;;;3.10;;
22632;SDS011;11483;55.828;37.488;2023-05-23T08:11:55;12.27;;;3.85;;
22632;SDS011;11483;55.828;37.488;2023-05-23T08:14:21;20.00;;;4.50;;
22632;SDS011;11483;55.828;37.488;2023-05-23T08:16:47;19.83;;;4.68;;
22632;SDS011;11483;55.828;37.488;2023-05-23T08:19:13;12.88;;;5.20;;
22632;SDS011;11483;55.828;37.488;2023-05-23T08:21:39;16.45;;;4.18;;
22632;SDS011;11483;55.828;37.488;2023-05-23T08:24:06;15.07;;;4.38;;
22632;SDS011;11483;55.828;37.488;2023-05-23T08:26:32;10.32;;;3.90;;
22632;SDS011;11483;55.828;37.488;2023-05-23T08:29:01;22.67;;;4.30;;
22632;SDS011;11483;55.828;37.488;2023-05-23T08:31:28;16.15;;;4.05;;
22632;SDS011;11483;55.828;37.488;2023-05-23T08:33:54;14.25;;;4.00;;
22632;SDS011;11483;55.828;37.488;2023-05-23T08:36:20;22.02;;;10.45;;
22632;SDS011;11483;55.828;37.488;2023-05-23T08:38:46;25.38;;;7.60;;
22632;SDS011;11483;55.828;37.488;2023-05-23T08:41:15;13.25;;;5.43;;
22632;SDS011;11483;55.828;37.488;2023-05-23T09:13:05;10.82;;;4.05;;
22632;SDS011;11483;55.828;37.488;2023-05-23T09:15:31;15.80;;;4.22;;
22632;SDS011;11483;55.828;37.488;2023-05-23T09:20:26;16.13;;;4.18;;
22632;SDS011;11483;55.828;37.488;2023-05-23T09:22:53;13.10;;;3.90;;
22632;SDS011;11483;55.828;37.488;2023-05-23T09:25:20;15.13;;;4.03;;
22632;SDS011;11483;55.828;37.488;2023-05-23T09:27:46;9.32;;;3.60;;
22632;SDS011;11483;55.828;37.488;2023-05-23T09:30:12;6.32;;;2.97;;
22632;SDS011;11483;55.828;37.488;2023-05-23T09:32:38;14.82;;;7.32;;
22632;SDS011;11483;55.828;37.488;2023-05-23T09:35:05;9.00;;;4.03;;
22632;SDS011;11483;55.828;37.488;2023-05-23T09:37:34;8.77;;;3.72;;
22632;SDS011;11483;55.828;37.488;2023-05-23T09:40:08;7.18;;;3.17;;
22632;SDS011;11483;55.828;37.488;2023-05-23T09:42:35;12.50;;;3.22;;
22632;SDS011;11483;55.828;37.488;2023-05-23T09:45:08;5.28;;;2.78;;
22632;SDS011;11483;55.828;37.488;2023-05-23T09:47:34;9.85;;;2.85;;
22632;SDS011;11483;55.828;37.488;2023-05-23T09:50:00;7.05;;;3.10;;
22632;SDS011;11483;55.828;37.488;2023-05-23T09:52:26;10.27;;;3.08;;
22632;SDS011;11483;55.828;37.488;2023-05-23T09:55:04;7.07;;;3.10;;
22632;SDS011;11483;55.828;37.488;2023-05-23T09:57:33;7.25;;;3.00;;
22632;SDS011;11483;55.828;37.488;2023-05-23T10:00:02;7.07;;;2.70;;
22632;SDS011;11483;55.828;37.488;2023-05-23T10:08:58;10.35;;;3.08;;
22632;SDS011;11483;55.828;37.488;2023-05-23T10:13:58;9.05;;;3.53;;
22632;SDS011;11483;55.828;37.488;2023-05-23T10:16:32;10.67;;;3.80;;
22632;SDS011;11483;55.828;37.488;2023-05-23T10:22:03;11.97;;;4.17;;
22632;SDS011;11483;55.828;37.488;2023-05-23T10:24:31;9.77;;;3.80;;
22632;SDS011;11483;55.828;37.488;2023-05-23T10:26:58;8.80;;;3.80;;
22632;SDS011;11483;55.828;37.488;2023-05-23T10:29:24;9.32;;;3.50;;
22632;SDS011;11483;55.828;37.488;2023-05-23T10:31:50;9.85;;;4.05;;
22632;SDS011;11483;55.828;37.488;2023-05-23T10:37:02;10.40;;;4.47;;
22632;SDS011;11483;55.828;37.488;2023-05-23T10:42:27;10.68;;;4.40;;
22632;SDS011;11483;55.828;37.488;2023-05-23T10:45:18;8.67;;;4.27;;
22632;SDS011;11483;55.828;37.488;2023-05-23T10:47:49;9.75;;;4.55;;
22632;SDS011;11483;55.828;37.488;2023-05-23T10:52:58;10.48;;;4.47;;
22632;SDS011;11483;55.828;37.488;2023-05-23T10:55:29;9.32;;;4.65;;
22632;SDS011;11483;55.828;37.488;2023-05-23T10:58:10;10.38;;;4.53;;
22632;SDS011;11483;55.828;37.488;2023-05-23T11:00:56;14.18;;;4.47;;
22632;SDS011;11483;55.828;37.488;2023-05-23T11:03:29;10.77;;;4.10;;
22632;SDS011;11483;55.828;37.488;2023-05-23T11:05:59;18.23;;;4.15;;
22632;SDS011;11483;55.828;37.488;2023-05-23T11:08:27;17.27;;;4.78;;
22632;SDS011;11483;55.828;37.488;2023-05-23T11:11:02;10.57;;;5.22;;
22632;SDS011;11483;55.828;37.488;2023-05-23T11:21:44;13.88;;;5.75;;
22632;SDS011;11483;55.828;37.488;2023-05-23T11:24:13;16.05;;;6.00;;
22632;SDS011;11483;55.828;37.488;2023-05-23T11:26:39;18.20;;;5.68;;
22632;SDS011;11483;55.828;37.488;2023-05-23T11:29:15;16.65;;;6.68;;
22632;SDS011;11483;55.828;37.488;2023-05-23T11:31:41;15.68;;;6.15;;
22632;SDS011;11483;55.828;37.488;2023-05-23T11:34:06;13.13;;;6.47;;
22632;SDS011;11483;55.828;37.488;2023-05-23T11:36:33;12.77;;;6.60;;
22632;SDS011;11483;55.828;37.488;2023-05-23T11:39:02;13.75;;;7.60;;
22632;SDS011;11483;55.828;37.488;2023-05-23T11:41:33;25.27;;;7.55;;
22632;SDS011;11483;55.828;37.488;2023-05-23T11:43:59;16.05;;;7.30;;
22632;SDS011;11483;55.828;37.488;2023-05-23T11:46:26;15.38;;;7.22;;
22632;SDS011;11483;55.828;37.488;2023-05-23T11:48:52;17.15;;;7.63;;
22632;SDS011;11483;55.828;37.488;2023-05-23T11:51:18;17.52;;;7.97;;
22632;SDS011;11483;55.828;37.488;2023-05-23T11:53:46;17.70;;;7.88;;
22632;SDS011;11483;55.828;37.488;2023-05-23T11:56:13;16.77;;;8.45;;
22632;SDS011;11483;55.828;37.488;2023-05-23T11:58:40;16.38;;;8.48;;
22632;SDS011;11483;55.828;37.488;2023-05-23T12:01:07;17.13;;;8.50;;
22632;SDS011;11483;55.828;37.488;2023-05-23T12:03:43;14.57;;;7.20;;
22632;SDS011;11483;55.828;37.488;2023-05-23T12:06:13;16.35;;;8.38;;
22632;SDS011;11483;55.828;37.488;2023-05-23T12:08:40;21.98;;;8.38;;
22632;SDS011;11483;55.828;37.488;2023-05-23T12:11:06;15.32;;;8.43;;
22632;SDS011;11483;55.828;37.488;2023-05-23T12:13:32;18.88;;;8.35;;
22632;SDS011;11483;55.828;37.488;2023-05-23T12:16:01;19.85;;;9.48;;
22632;SDS011;11483;55.828;37.488;2023-05-23T12:18:31;20.48;;;9.10;;
22632;SDS011;11483;55.828;37.488;2023-05-23T12:21:04;20.75;;;9.27;;
22632;SDS011;11483;55.828;37.488;2023-05-23T12:23:32;23.23;;;9.50;;
22632;SDS011;11483;55.828;37.488;2023-05-23T12:26:00;18.77;;;9.40;;
22632;SDS011;11483;55.828;37.488;2023-05-23T12:28:48;19.05;;;9.70;;
22632;SDS011;11483;55.828;37.488;2023-05-23T12:31:19;22.35;;;10.27;;
22632;SDS011;11483;55.828;37.488;2023-05-23T12:33:46;26.75;;;9.70;;
22632;SDS011;11483;55.828;37.488;2023-05-23T12:36:13;18.70;;;9.32;;
22632;SDS011;11483;55.828;37.488;2023-05-23T12:38:45;22.77;;;10.57;;
22632;SDS011;11483;55.828;37.488;2023-05-23T12:41:14;25.15;;;9.98;;
22632;SDS011;11483;55.828;37.488;2023-05-23T12:43:48;17.20;;;10.30;;
22632;SDS011;11483;55.828;37.488;2023-05-23T12:46:17;20.38;;;10.73;;
22632;SDS011;11483;55.828;37.488;2023-05-23T12:48:44;22.67;;;10.77;;
22632;SDS011;11483;55.828;37.488;2023-05-23T12:51:11;17.50;;;10.52;;
22632;SDS011;11483;55.828;37.488;2023-05-23T12:53:37;17.13;;;9.95;;
22632;SDS011;11483;55.828;37.488;2023-05-23T12:56:03;22.35;;;10.80;;
22632;SDS011;11483;55.828;37.488;2023-05-23T12:58:30;18.08;;;10.15;;
22632;SDS011;11483;55.828;37.488;2023-05-23T13:00:56;20.38;;;9.63;;
22632;SDS011;11483;55.828;37.488;2023-05-23T13:03:23;19.60;;;9.57;;
22632;SDS011;11483;55.828;37.488;2023-05-23T13:15:34;20.58;;;9.68;;
22632;SDS011;11483;55.828;37.488;2023-05-23T13:18:00;19.30;;;10.13;;
22632;SDS011;11483;55.828;37.488;2023-05-23T13:20:26;23.23;;;10.45;;
22632;SDS011;11483;55.828;37.488;2023-05-23T13:22:57;16.17;;;9.65;;
22632;SDS011;11483;55.828;37.488;2023-05-23T13:25:23;27.17;;;10.75;;
22632;SDS011;11483;55.828;37.488;2023-05-23T13:27:50;22.45;;;11.13;;
22632;SDS011;11483;55.828;37.488;2023-05-23T13:30:17;16.35;;;8.80;;
22632;SDS011;11483;55.828;37.488;2023-05-23T13:32:43;18.73;;;9.40;;
22632;SDS011;11483;55.828;37.488;2023-05-23T13:35:09;25.17;;;10.23;;
22632;SDS011;11483;55.828;37.488;2023-05-23T13:37:36;16.77;;;8.95;;
22632;SDS011;11483;55.828;37.488;2023-05-23T13:40:02;16.08;;;8.27;;
22632;SDS011;11483;55.828;37.488;2023-05-23T13:42:29;18.38;;;8.93;;
22632;SDS011;11483;55.828;37.488;2023-05-23T13:49:46;15.63;;;8.07;;
22632;SDS011;11483;55.828;37.488;2023-05-23T13:52:12;21.85;;;10.13;;
22632;SDS011;11483;55.828;37.488;2023-05-23T13:54:38;18.55;;;8.50;;
22632;SDS011;11483;55.828;37.488;2023-05-23T13:57:04;32.22;;;9.18;;
22632;SDS011;11483;55.828;37.488;2023-05-23T13:59:30;17.48;;;8.20;;
22632;SDS011;11483;55.828;37.488;2023-05-23T14:01:56;15.82;;;8.85;;
22632;SDS011;11483;55.828;37.488;2023-05-23T14:04:22;18.45;;;8.43;;
22632;SDS011;11483;55.828;37.488;2023-05-23T14:06:48;23.87;;;9.70;;
22632;SDS011;11483;55.828;37.488;2023-05-23T14:09:15;16.88;;;9.07;;
22632;SDS011;11483;55.828;37.488;2023-05-23T14:11:42;21.33;;;10.05;;
22632;SDS011;11483;55.828;37.488;2023-05-23T14:14:08;29.50;;;9.35;;
22632;SDS011;11483;55.828;37.488;2023-05-23T14:16:34;19.75;;;9.70;;
22632;SDS011;11483;55.828;37.488;2023-05-23T14:19:00;24.15;;;9.27;;
22632;SDS011;11483;55.828;37.488;2023-05-23T14:21:26;23.63;;;11.30;;
22632;SDS011;11483;55.828;37.488;2023-05-23T14:23:55;25.83;;;13.00;;
22632;SDS011;11483;55.828;37.488;2023-05-23T14:26:21;16.48;;;8.27;;
22632;SDS011;11483;55.828;37.488;2023-05-23T14:28:47;20.50;;;7.80;;
22632;SDS011;11483;55.828;37.488;2023-05-23T14:31:13;18.73;;;10.18;;
22632;SDS011;11483;55.828;37.488;2023-05-23T14:33:39;16.40;;;8.70;;
22632;SDS011;11483;55.828;37.488;2023-05-23T14:36:05;15.10;;;8.00;;
22632;SDS011;11483;55.828;37.488;2023-05-23T14:38:31;24.23;;;8.55;;
22632;SDS011;11483;55.828;37.488;2023-05-23T14:40:56;15.00;;;7.47;;
22632;SDS011;11483;55.828;37.488;2023-05-23T14:43:23;14.00;;;7.90;;
22632;SDS011;11483;55.828;37.488;2023-05-23T14:45:49;22.25;;;8.57;;
22632;SDS011;11483;55.828;37.488;2023-05-23T14:48:15;16.10;;;7.63;;
22632;SDS011;11483;55.828;37.488;2023-05-23T14:50:41;22.17;;;7.18;;
22632;SDS011;11483;55.828;37.488;2023-05-23T14:53:07;14.60;;;6.80;;
22632;SDS011;11483;55.828;37.488;2023-05-23T14:55:33;15.13;;;6.82;;
22632;SDS011;11483;55.828;37.488;2023-05-23T14:57:59;16.27;;;7.65;;
22632;SDS011;11483;55.828;37.488;2023-05-23T15:00:27;22.23;;;8.25;;
22632;SDS011;11483;55.828;37.488;2023-05-23T15:02:53;19.30;;;8.25;;
22632;SDS011;11483;55.828;37.488;2023-05-23T15:05:19;20.23;;;8.35;;
22632;SDS011;11483;55.828;37.488;2023-05-23T15:07:44;16.92;;;6.88;;
22632;SDS011;11483;55.828;37.488;2023-05-23T15:10:10;21.48;;;8.88;;
22632;SDS011;11483;55.828;37.488;2023-05-23T15:12:36;14.95;;;6.70;;
22632;SDS011;11483;55.828;37.488;2023-05-23T15:15:02;19.23;;;6.65;;
22632;SDS011;11483;55.828;37.488;2023-05-23T15:17:32;17.67;;;7.95;;
22632;SDS011;11483;55.828;37.488;2023-05-23T15:19:58;17.17;;;7.80;;
22632;SDS011;11483;55.828;37.488;2023-05-23T15:22:24;17.20;;;7.70;;
22632;SDS011;11483;55.828;37.488;2023-05-23T15:24:50;15.23;;;8.27;;
22632;SDS011;11483;55.828;37.488;2023-05-23T15:27:16;18.38;;;7.75;;
22632;SDS011;11483;55.828;37.488;2023-05-23T15:29:43;14.95;;;8.13;;
22632;SDS011;11483;55.828;37.488;2023-05-23T15:32:09;18.42;;;8.20;;
22632;SDS011;11483;55.828;37.488;2023-05-23T15:34:35;15.63;;;8.52;;
22632;SDS011;11483;55.828;37.488;2023-05-23T15:37:01;19.33;;;9.00;;
22632;SDS011;11483;55.828;37.488;2023-05-23T15:39:27;17.58;;;8.23;;
22632;SDS011;11483;55.828;37.488;2023-05-23T15:41:53;20.05;;;8.52;;
22632;SDS011;11483;55.828;37.488;2023-05-23T15:44:19;19.95;;;8.85;;
22632;SDS011;11483;55.828;37.488;2023-05-23T15:46:47;14.02;;;8.20;;
22632;SDS011;11483;55.828;37.488;2023-05-23T15:49:14;28.08;;;8.55;;
22632;SDS011;11483;55.828;37.488;2023-05-23T15:51:40;20.25;;;8.65;;
22632;SDS011;11483;55.828;37.488;2023-05-23T15:54:06;23.77;;;8.70;;
22632;SDS011;11483;55.828;37.488;2023-05-23T15:56:32;18.35;;;7.50;;
22632;SDS011;11483;55.828;37.488;2023-05-23T15:58:58;21.52;;;8.43;;
22632;SDS011;11483;55.828;37.488;2023-05-23T16:01:24;23.95;;;8.57;;
22632;SDS011;11483;55.828;37.488;2023-05-23T16:03:50;20.23;;;8.55;;
22632;SDS011;11483;55.828;37.488;2023-05-23T16:06:16;26.70;;;8.38;;
22632;SDS011;11483;55.828;37.488;2023-05-23T16:08:41;20.05;;;8.20;;
22632;SDS011;11483;55.828;37.488;2023-05-23T16:11:07;24.15;;;8.32;;
22632;SDS011;11483;55.828;37.488;2023-05-23T16:13:33;24.83;;;10.43;;
22632;SDS011;11483;55.828;37.488;2023-05-23T16:16:01;25.30;;;7.97;;
22632;SDS011;11483;55.828;37.488;2023-05-23T16:18:27;16.63;;;7.60;;
22632;SDS011;11483;55.828;37.488;2023-05-23T16:20:53;23.83;;;7.10;;